sensor_id;sensor_type;location;lat;lon;timestamp;P1;durP1;ratioP1;P2;durP2;ratioP2
22138;SDS011;25815;52.582;13.408;2022-10-16T00:01:22;5.32;;;1.63;;
22138;SDS011;25815;52.582;13.408;2022-10-16T00:03:48;2.88;;;1.20;;
22138;SDS011;25815;52.582;13.408;2022-10-16T00:06:15;1.98;;;1.40;;
22138;SDS011;25815;52.582;13.408;2022-10-16T00:08:41;2.95;;;1.77;;
22138;SDS011;25815;52.582;13.408;2022-10-16T00:11:09;3.63;;;1.30;;
22138;SDS011;25815;52.582;13.408;2022-10-16T00:13:36;1.92;;;1.33;;
22138;SDS011;25815;52.582;13.408;2022-10-16T00:16:02;3.78;;;1.50;;
22138;SDS011;25815;52.582;13.408;2022-10-16T00:18:28;1.73;;;1.42;;
22138;SDS011;25815;52.582;13.408;2022-10-16T00:20:54;2.53;;;1.48;;
22138;SDS011;25815;52.582;13.408;2022-10-16T00:23:21;2.13;;;1.23;;
22138;SDS011;25815;52.582;13.408;2022-10-16T00:25:56;2.63;;;1.70;;
22138;SDS011;25815;52.582;13.408;2022-10-16T00:28:22;2.95;;;1.38;;
22138;SDS011;25815;52.582;13.408;2022-10-16T00:30:48;2.33;;;1.20;;
22138;SDS011;25815;52.582;13.408;2022-10-16T00:33:14;2.90;;;1.35;;
22138;SDS011;25815;52.582;13.408;2022-10-16T00:35:40;1.40;;;1.17;;
22138;SDS011;25815;52.582;13.408;2022-10-16T00:38:06;4.32;;;1.38;;
22138;SDS011;25815;52.582;13.408;2022-10-16T00:40:32;2.63;;;1.42;;
22138;SDS011;25815;52.582;13.408;2022-10-16T00:42:58;1.65;;;1.30;;
22138;SDS011;25815;52.582;13.408;2022-10-16T00:45:24;1.77;;;1.48;;
22138;SDS011;25815;52.582;13.408;2022-10-16T00:47:49;2.65;;;1.17;;
22138;SDS011;25815;52.582;13.408;2022-10-16T00:50:30;2.55;;;1.42;;
22138;SDS011;25815;52.582;13.408;2022-10-16T00:52:56;1.73;;;1.40;;
22138;SDS011;25815;52.582;13.408;2022-10-16T00:55:23;1.95;;;1.40;;
22138;SDS011;25815;52.582;13.408;2022-10-16T00:57:50;1.65;;;1.20;;
22138;SDS011;25815;52.582;13.408;2022-10-16T01:00:19;1.27;;;1.17;;
22138;SDS011;25815;52.582;13.408;2022-10-16T01:02:51;1.33;;;1.23;;
22138;SDS011;25815;52.582;13.408;2022-10-16T01:05:17;2.08;;;1.33;;
22138;SDS011;25815;52.582;13.408;2022-10-16T01:10:30;1.83;;;1.38;;
22138;SDS011;25815;52.582;13.408;2022-10-16T01:13:01;1.38;;;1.25;;
22138;SDS011;25815;52.582;13.408;2022-10-16T01:18:34;1.70;;;1.17;;
22138;SDS011;25815;52.582;13.408;2022-10-16T01:21:02;1.73;;;1.20;;
22138;SDS011;25815;52.582;13.408;2022-10-16T01:23:36;1.38;;;1.27;;
22138;SDS011;25815;52.582;13.408;2022-10-16T01:28:43;1.40;;;1.20;;
22138;SDS011;25815;52.582;13.408;2022-10-16T01:31:11;2.50;;;1.25;;
22138;SDS011;25815;52.582;13.408;2022-10-16T01:33:45;1.42;;;0.90;;
22138;SDS011;25815;52.582;13.408;2022-10-16T01:36:13;1.13;;;1.00;;
22138;SDS011;25815;52.582;13.408;2022-10-16T01:38:40;3.90;;;1.30;;
22138;SDS011;25815;52.582;13.408;2022-10-16T01:41:09;1.52;;;1.00;;
22138;SDS011;25815;52.582;13.408;2022-10-16T01:43:37;1.48;;;1.20;;
22138;SDS011;25815;52.582;13.408;2022-10-16T01:46:05;1.63;;;1.17;;
22138;SDS011;25815;52.582;13.408;2022-10-16T01:48:31;2.78;;;1.30;;
22138;SDS011;25815;52.582;13.408;2022-10-16T01:51:01;2.60;;;1.48;;
22138;SDS011;25815;52.582;13.408;2022-10-16T01:53:28;1.83;;;1.30;;
22138;SDS011;25815;52.582;13.408;2022-10-16T01:55:55;1.50;;;1.30;;
22138;SDS011;25815;52.582;13.408;2022-10-16T01:58:21;1.13;;;1.02;;
22138;SDS011;25815;52.582;13.408;2022-10-16T02:00:49;1.75;;;1.38;;
22138;SDS011;25815;52.582;13.408;2022-10-16T02:03:16;1.40;;;1.23;;
22138;SDS011;25815;52.582;13.408;2022-10-16T02:05:45;1.63;;;1.10;;
22138;SDS011;25815;52.582;13.408;2022-10-16T02:08:12;1.30;;;1.20;;
22138;SDS011;25815;52.582;13.408;2022-10-16T02:10:38;2.75;;;1.08;;
22138;SDS011;25815;52.582;13.408;2022-10-16T02:13:11;4.13;;;1.23;;
22138;SDS011;25815;52.582;13.408;2022-10-16T02:15:38;1.92;;;1.30;;
22138;SDS011;25815;52.582;13.408;2022-10-16T02:18:05;1.52;;;1.40;;
22138;SDS011;25815;52.582;13.408;2022-10-16T02:20:32;2.63;;;1.02;;
22138;SDS011;25815;52.582;13.408;2022-10-16T02:22:59;3.05;;;1.20;;
22138;SDS011;25815;52.582;13.408;2022-10-16T02:25:29;3.25;;;1.27;;
22138;SDS011;25815;52.582;13.408;2022-10-16T02:28:06;3.83;;;1.10;;
22138;SDS011;25815;52.582;13.408;2022-10-16T02:30:35;1.80;;;1.10;;
22138;SDS011;25815;52.582;13.408;2022-10-16T02:33:02;3.25;;;1.00;;
22138;SDS011;25815;52.582;13.408;2022-10-16T02:35:29;1.50;;;1.10;;
22138;SDS011;25815;52.582;13.408;2022-10-16T02:37:56;2.45;;;1.15;;
22138;SDS011;25815;52.582;13.408;2022-10-16T02:40:22;1.70;;;1.33;;
22138;SDS011;25815;52.582;13.408;2022-10-16T02:42:50;2.15;;;1.30;;
22138;SDS011;25815;52.582;13.408;2022-10-16T02:45:16;1.95;;;1.02;;
22138;SDS011;25815;52.582;13.408;2022-10-16T02:47:42;8.55;;;1.38;;
22138;SDS011;25815;52.582;13.408;2022-10-16T02:50:08;1.20;;;1.10;;
22138;SDS011;25815;52.582;13.408;2022-10-16T02:52:40;2.40;;;1.13;;
22138;SDS011;25815;52.582;13.408;2022-10-16T02:55:06;2.95;;;1.02;;
22138;SDS011;25815;52.582;13.408;2022-10-16T02:57:32;1.23;;;1.10;;
22138;SDS011;25815;52.582;13.408;2022-10-16T02:59:58;2.28;;;1.10;;
22138;SDS011;25815;52.582;13.408;2022-10-16T03:02:24;1.80;;;1.38;;
22138;SDS011;25815;52.582;13.408;2022-10-16T03:04:50;1.40;;;1.00;;
22138;SDS011;25815;52.582;13.408;2022-10-16T03:07:16;1.77;;;1.13;;
22138;SDS011;25815;52.582;13.408;2022-10-16T03:09:41;1.60;;;1.20;;
22138;SDS011;25815;52.582;13.408;2022-10-16T03:12:07;1.20;;;1.00;;
22138;SDS011;25815;52.582;13.408;2022-10-16T03:14:34;1.38;;;0.93;;
22138;SDS011;25815;52.582;13.408;2022-10-16T03:17:00;2.05;;;1.10;;
22138;SDS011;25815;52.582;13.408;2022-10-16T03:19:26;2.13;;;0.80;;
22138;SDS011;25815;52.582;13.408;2022-10-16T03:21:52;1.55;;;1.02;;
22138;SDS011;25815;52.582;13.408;2022-10-16T03:24:18;1.95;;;1.02;;
22138;SDS011;25815;52.582;13.408;2022-10-16T03:26:44;0.95;;;0.85;;
22138;SDS011;25815;52.582;13.408;2022-10-16T03:29:09;1.35;;;1.17;;
22138;SDS011;25815;52.582;13.408;2022-10-16T03:31:35;1.55;;;0.88;;
22138;SDS011;25815;52.582;13.408;2022-10-16T03:34:01;1.52;;;1.10;;
22138;SDS011;25815;52.582;13.408;2022-10-16T03:36:27;1.10;;;0.90;;
22138;SDS011;25815;52.582;13.408;2022-10-16T03:38:53;1.60;;;1.15;;
22138;SDS011;25815;52.582;13.408;2022-10-16T03:41:19;1.42;;;1.00;;
22138;SDS011;25815;52.582;13.408;2022-10-16T03:43:45;1.77;;;1.00;;
22138;SDS011;25815;52.582;13.408;2022-10-16T03:46:11;3.92;;;1.13;;
22138;SDS011;25815;52.582;13.408;2022-10-16T03:48:37;1.52;;;1.10;;
22138;SDS011;25815;52.582;13.408;2022-10-16T03:51:04;2.65;;;1.52;;
22138;SDS011;25815;52.582;13.408;2022-10-16T03:53:30;1.73;;;1.23;;
22138;SDS011;25815;52.582;13.408;2022-10-16T03:55:56;1.30;;;1.20;;
22138;SDS011;25815;52.582;13.408;2022-10-16T03:58:23;1.27;;;1.08;;
22138;SDS011;25815;52.582;13.408;2022-10-16T04:00:49;1.83;;;1.20;;
22138;SDS011;25815;52.582;13.408;2022-10-16T04:03:15;2.13;;;1.30;;
22138;SDS011;25815;52.582;13.408;2022-10-16T04:05:42;1.98;;;1.45;;
22138;SDS011;25815;52.582;13.408;2022-10-16T04:08:08;1.60;;;1.40;;
22138;SDS011;25815;52.582;13.408;2022-10-16T04:10:33;2.33;;;1.20;;
22138;SDS011;25815;52.582;13.408;2022-10-16T04:13:00;1.65;;;1.40;;
22138;SDS011;25815;52.582;13.408;2022-10-16T04:15:26;2.22;;;1.58;;
22138;SDS011;25815;52.582;13.408;2022-10-16T04:17:52;2.05;;;1.50;;
22138;SDS011;25815;52.582;13.408;2022-10-16T04:20:18;3.38;;;1.65;;
22138;SDS011;25815;52.582;13.408;2022-10-16T04:22:44;3.78;;;1.55;;
22138;SDS011;25815;52.582;13.408;2022-10-16T04:25:10;2.40;;;1.35;;
22138;SDS011;25815;52.582;13.408;2022-10-16T04:27:36;1.88;;;1.30;;
22138;SDS011;25815;52.582;13.408;2022-10-16T04:30:02;1.80;;;1.42;;
22138;SDS011;25815;52.582;13.408;2022-10-16T04:32:28;2.25;;;1.50;;
22138;SDS011;25815;52.582;13.408;2022-10-16T04:34:54;2.80;;;1.30;;
22138;SDS011;25815;52.582;13.408;2022-10-16T04:37:26;1.83;;;1.42;;
22138;SDS011;25815;52.582;13.408;2022-10-16T04:39:53;2.55;;;1.65;;
22138;SDS011;25815;52.582;13.408;2022-10-16T04:42:19;2.65;;;1.60;;
22138;SDS011;25815;52.582;13.408;2022-10-16T04:44:45;1.90;;;1.58;;
22138;SDS011;25815;52.582;13.408;2022-10-16T04:47:12;2.17;;;1.50;;
22138;SDS011;25815;52.582;13.408;2022-10-16T04:49:38;1.95;;;1.50;;
22138;SDS011;25815;52.582;13.408;2022-10-16T04:52:04;1.73;;;1.50;;
22138;SDS011;25815;52.582;13.408;2022-10-16T04:54:30;3.88;;;1.30;;
22138;SDS011;25815;52.582;13.408;2022-10-16T04:56:56;1.50;;;1.40;;
22138;SDS011;25815;52.582;13.408;2022-10-16T04:59:22;2.28;;;1.48;;
22138;SDS011;25815;52.582;13.408;2022-10-16T05:01:48;1.60;;;1.50;;
22138;SDS011;25815;52.582;13.408;2022-10-16T05:04:14;2.78;;;1.40;;
22138;SDS011;25815;52.582;13.408;2022-10-16T05:06:40;1.63;;;1.13;;
22138;SDS011;25815;52.582;13.408;2022-10-16T05:09:07;2.10;;;1.60;;
22138;SDS011;25815;52.582;13.408;2022-10-16T05:11:33;2.65;;;1.70;;
22138;SDS011;25815;52.582;13.408;2022-10-16T05:13:59;1.73;;;1.55;;
22138;SDS011;25815;52.582;13.408;2022-10-16T05:16:25;2.13;;;1.77;;
22138;SDS011;25815;52.582;13.408;2022-10-16T05:18:51;2.00;;;1.75;;
22138;SDS011;25815;52.582;13.408;2022-10-16T05:21:17;3.72;;;2.08;;
22138;SDS011;25815;52.582;13.408;2022-10-16T05:23:43;2.70;;;2.20;;
22138;SDS011;25815;52.582;13.408;2022-10-16T05:26:10;4.20;;;1.75;;
22138;SDS011;25815;52.582;13.408;2022-10-16T05:28:35;6.10;;;4.78;;
22138;SDS011;25815;52.582;13.408;2022-10-16T05:31:05;2.97;;;2.08;;
22138;SDS011;25815;52.582;13.408;2022-10-16T05:33:31;1.95;;;1.60;;
22138;SDS011;25815;52.582;13.408;2022-10-16T05:36:00;1.90;;;1.70;;
22138;SDS011;25815;52.582;13.408;2022-10-16T05:38:26;1.55;;;1.27;;
22138;SDS011;25815;52.582;13.408;2022-10-16T05:40:52;5.22;;;1.65;;
22138;SDS011;25815;52.582;13.408;2022-10-16T05:43:18;2.10;;;1.42;;
22138;SDS011;25815;52.582;13.408;2022-10-16T05:45:44;3.38;;;1.92;;
22138;SDS011;25815;52.582;13.408;2022-10-16T05:48:18;2.10;;;1.65;;
22138;SDS011;25815;52.582;13.408;2022-10-16T05:50:44;2.55;;;1.60;;
22138;SDS011;25815;52.582;13.408;2022-10-16T05:53:10;2.15;;;1.63;;
22138;SDS011;25815;52.582;13.408;2022-10-16T05:55:36;2.75;;;1.45;;
22138;SDS011;25815;52.582;13.408;2022-10-16T05:58:02;2.13;;;1.67;;
22138;SDS011;25815;52.582;13.408;2022-10-16T06:00:28;2.53;;;1.60;;
22138;SDS011;25815;52.582;13.408;2022-10-16T06:02:54;3.97;;;1.70;;
22138;SDS011;25815;52.582;13.408;2022-10-16T06:05:20;2.60;;;1.70;;
22138;SDS011;25815;52.582;13.408;2022-10-16T06:07:45;2.17;;;1.58;;
22138;SDS011;25815;52.582;13.408;2022-10-16T06:10:11;2.53;;;1.60;;
22138;SDS011;25815;52.582;13.408;2022-10-16T06:12:37;2.00;;;1.80;;
22138;SDS011;25815;52.582;13.408;2022-10-16T06:15:03;1.90;;;1.67;;
22138;SDS011;25815;52.582;13.408;2022-10-16T06:17:29;3.92;;;2.03;;
22138;SDS011;25815;52.582;13.408;2022-10-16T06:19:55;4.57;;;1.50;;
22138;SDS011;25815;52.582;13.408;2022-10-16T06:22:21;1.67;;;1.58;;
22138;SDS011;25815;52.582;13.408;2022-10-16T06:24:47;1.67;;;1.58;;
22138;SDS011;25815;52.582;13.408;2022-10-16T06:27:14;2.38;;;1.52;;
22138;SDS011;25815;52.582;13.408;2022-10-16T06:29:40;3.05;;;1.58;;
22138;SDS011;25815;52.582;13.408;2022-10-16T06:32:07;3.42;;;1.67;;
22138;SDS011;25815;52.582;13.408;2022-10-16T06:34:34;3.17;;;2.00;;
22138;SDS011;25815;52.582;13.408;2022-10-16T06:37:00;2.13;;;1.70;;
22138;SDS011;25815;52.582;13.408;2022-10-16T06:39:26;1.80;;;1.70;;
22138;SDS011;25815;52.582;13.408;2022-10-16T06:41:52;1.90;;;1.70;;
22138;SDS011;25815;52.582;13.408;2022-10-16T06:44:18;2.53;;;1.70;;
22138;SDS011;25815;52.582;13.408;2022-10-16T06:46:44;2.97;;;1.90;;
22138;SDS011;25815;52.582;13.408;2022-10-16T06:49:10;5.88;;;2.05;;
22138;SDS011;25815;52.582;13.408;2022-10-16T06:51:36;3.28;;;1.95;;
22138;SDS011;25815;52.582;13.408;2022-10-16T06:54:05;2.08;;;1.83;;
22138;SDS011;25815;52.582;13.408;2022-10-16T06:56:32;3.85;;;1.90;;
22138;SDS011;25815;52.582;13.408;2022-10-16T06:58:58;1.83;;;1.52;;
22138;SDS011;25815;52.582;13.408;2022-10-16T07:01:25;3.45;;;2.00;;
22138;SDS011;25815;52.582;13.408;2022-10-16T07:03:51;3.20;;;1.92;;
22138;SDS011;25815;52.582;13.408;2022-10-16T07:06:18;3.47;;;2.05;;
22138;SDS011;25815;52.582;13.408;2022-10-16T07:08:45;2.55;;;1.88;;
22138;SDS011;25815;52.582;13.408;2022-10-16T07:11:15;2.28;;;1.92;;
22138;SDS011;25815;52.582;13.408;2022-10-16T07:13:42;5.80;;;1.90;;
22138;SDS011;25815;52.582;13.408;2022-10-16T07:16:09;2.45;;;1.90;;
22138;SDS011;25815;52.582;13.408;2022-10-16T07:18:36;3.00;;;1.73;;
22138;SDS011;25815;52.582;13.408;2022-10-16T07:21:08;1.83;;;1.60;;
22138;SDS011;25815;52.582;13.408;2022-10-16T07:23:34;4.30;;;2.58;;
22138;SDS011;25815;52.582;13.408;2022-10-16T07:26:00;2.42;;;1.90;;
22138;SDS011;25815;52.582;13.408;2022-10-16T07:28:26;3.53;;;1.83;;
22138;SDS011;25815;52.582;13.408;2022-10-16T07:30:52;1.75;;;1.58;;
22138;SDS011;25815;52.582;13.408;2022-10-16T07:33:18;3.08;;;1.52;;
22138;SDS011;25815;52.582;13.408;2022-10-16T07:35:48;2.22;;;1.60;;
22138;SDS011;25815;52.582;13.408;2022-10-16T07:38:14;3.20;;;1.83;;
22138;SDS011;25815;52.582;13.408;2022-10-16T07:40:40;1.98;;;1.58;;
22138;SDS011;25815;52.582;13.408;2022-10-16T07:43:05;1.52;;;1.42;;
22138;SDS011;25815;52.582;13.408;2022-10-16T07:45:31;2.88;;;1.20;;
22138;SDS011;25815;52.582;13.408;2022-10-16T07:47:57;1.83;;;1.25;;
22138;SDS011;25815;52.582;13.408;2022-10-16T07:50:23;2.08;;;1.42;;
22138;SDS011;25815;52.582;13.408;2022-10-16T07:52:49;1.48;;;1.10;;
22138;SDS011;25815;52.582;13.408;2022-10-16T07:55:15;2.42;;;1.52;;
22138;SDS011;25815;52.582;13.408;2022-10-16T07:57:41;2.70;;;1.30;;
22138;SDS011;25815;52.582;13.408;2022-10-16T08:00:07;1.77;;;1.30;;
22138;SDS011;25815;52.582;13.408;2022-10-16T08:02:38;1.35;;;1.20;;
22138;SDS011;25815;52.582;13.408;2022-10-16T08:05:04;4.20;;;1.95;;
22138;SDS011;25815;52.582;13.408;2022-10-16T08:07:30;1.50;;;1.20;;
22138;SDS011;25815;52.582;13.408;2022-10-16T08:09:56;3.83;;;1.38;;
22138;SDS011;25815;52.582;13.408;2022-10-16T08:12:23;2.75;;;1.20;;
22138;SDS011;25815;52.582;13.408;2022-10-16T08:14:49;2.42;;;1.08;;
22138;SDS011;25815;52.582;13.408;2022-10-16T08:17:15;2.45;;;1.25;;
22138;SDS011;25815;52.582;13.408;2022-10-16T08:19:47;2.22;;;1.45;;
22138;SDS011;25815;52.582;13.408;2022-10-16T08:22:13;4.38;;;3.35;;
22138;SDS011;25815;52.582;13.408;2022-10-16T08:24:40;1.83;;;1.10;;
22138;SDS011;25815;52.582;13.408;2022-10-16T08:27:06;2.35;;;1.20;;
22138;SDS011;25815;52.582;13.408;2022-10-16T08:29:33;2.08;;;1.50;;
22138;SDS011;25815;52.582;13.408;2022-10-16T08:31:59;2.05;;;1.73;;
22138;SDS011;25815;52.582;13.408;2022-10-16T08:34:25;3.42;;;1.30;;
22138;SDS011;25815;52.582;13.408;2022-10-16T08:36:52;1.25;;;1.05;;
22138;SDS011;25815;52.582;13.408;2022-10-16T08:39:19;1.33;;;1.10;;
22138;SDS011;25815;52.582;13.408;2022-10-16T08:42:19;1.75;;;1.08;;
22138;SDS011;25815;52.582;13.408;2022-10-16T08:49:47;1.65;;;1.23;;
22138;SDS011;25815;52.582;13.408;2022-10-16T08:52:16;2.08;;;0.93;;
22138;SDS011;25815;52.582;13.408;2022-10-16T08:54:43;2.35;;;1.27;;
22138;SDS011;25815;52.582;13.408;2022-10-16T08:59:39;4.85;;;1.23;;
22138;SDS011;25815;52.582;13.408;2022-10-16T09:07:25;2.25;;;1.30;;
22138;SDS011;25815;52.582;13.408;2022-10-16T09:09:56;6.82;;;1.60;;
22138;SDS011;25815;52.582;13.408;2022-10-16T09:12:27;1.30;;;1.02;;
22138;SDS011;25815;52.582;13.408;2022-10-16T09:15:07;2.38;;;1.10;;
22138;SDS011;25815;52.582;13.408;2022-10-16T09:17:54;3.45;;;1.40;;
22138;SDS011;25815;52.582;13.408;2022-10-16T09:20:30;2.10;;;1.10;;
22138;SDS011;25815;52.582;13.408;2022-10-16T09:23:08;2.42;;;1.30;;
22138;SDS011;25815;52.582;13.408;2022-10-16T09:25:35;1.40;;;1.17;;
22138;SDS011;25815;52.582;13.408;2022-10-16T09:28:03;1.17;;;1.02;;
22138;SDS011;25815;52.582;13.408;2022-10-16T09:30:29;2.17;;;1.23;;
22138;SDS011;25815;52.582;13.408;2022-10-16T09:32:55;1.40;;;1.10;;
22138;SDS011;25815;52.582;13.408;2022-10-16T09:35:25;1.80;;;1.10;;
22138;SDS011;25815;52.582;13.408;2022-10-16T09:37:53;2.85;;;1.20;;
22138;SDS011;25815;52.582;13.408;2022-10-16T09:40:24;1.27;;;1.17;;
22138;SDS011;25815;52.582;13.408;2022-10-16T09:42:51;1.98;;;1.35;;
22138;SDS011;25815;52.582;13.408;2022-10-16T09:45:22;1.42;;;1.20;;
22138;SDS011;25815;52.582;13.408;2022-10-16T09:47:49;1.52;;;1.20;;
22138;SDS011;25815;52.582;13.408;2022-10-16T09:50:22;2.92;;;1.13;;
22138;SDS011;25815;52.582;13.408;2022-10-16T09:52:48;1.45;;;1.00;;
22138;SDS011;25815;52.582;13.408;2022-10-16T09:55:15;3.90;;;1.55;;
22138;SDS011;25815;52.582;13.408;2022-10-16T09:57:51;3.80;;;1.70;;
22138;SDS011;25815;52.582;13.408;2022-10-16T10:00:17;2.85;;;1.25;;
22138;SDS011;25815;52.582;13.408;2022-10-16T10:02:43;2.08;;;1.40;;
22138;SDS011;25815;52.582;13.408;2022-10-16T10:05:23;1.67;;;1.10;;
22138;SDS011;25815;52.582;13.408;2022-10-16T10:07:54;1.73;;;0.85;;
22138;SDS011;25815;52.582;13.408;2022-10-16T10:10:24;3.03;;;1.40;;
22138;SDS011;25815;52.582;13.408;2022-10-16T10:12:51;3.80;;;0.90;;
22138;SDS011;25815;52.582;13.408;2022-10-16T10:15:17;1.02;;;0.70;;
22138;SDS011;25815;52.582;13.408;2022-10-16T10:17:56;2.10;;;0.90;;
22138;SDS011;25815;52.582;13.408;2022-10-16T10:20:29;1.08;;;0.90;;
22138;SDS011;25815;52.582;13.408;2022-10-16T10:22:57;2.58;;;1.30;;
22138;SDS011;25815;52.582;13.408;2022-10-16T10:28:06;1.65;;;0.70;;
22138;SDS011;25815;52.582;13.408;2022-10-16T10:30:39;6.75;;;1.05;;
22138;SDS011;25815;52.582;13.408;2022-10-16T10:35:56;1.05;;;0.95;;
22138;SDS011;25815;52.582;13.408;2022-10-16T10:38:26;3.10;;;1.30;;
22138;SDS011;25815;52.582;13.408;2022-10-16T10:41:07;3.78;;;1.10;;
22138;SDS011;25815;52.582;13.408;2022-10-16T10:43:42;1.10;;;1.00;;
22138;SDS011;25815;52.582;13.408;2022-10-16T10:46:14;5.07;;;0.90;;
22138;SDS011;25815;52.582;13.408;2022-10-16T10:51:12;0.70;;;0.70;;
22138;SDS011;25815;52.582;13.408;2022-10-16T10:53:47;5.82;;;1.23;;
22138;SDS011;25815;52.582;13.408;2022-10-16T10:56:37;1.48;;;0.82;;
22138;SDS011;25815;52.582;13.408;2022-10-16T11:01:59;0.93;;;0.60;;
22138;SDS011;25815;52.582;13.408;2022-10-16T11:04:43;0.98;;;0.73;;
22138;SDS011;25815;52.582;13.408;2022-10-16T11:07:20;1.38;;;0.95;;
22138;SDS011;25815;52.582;13.408;2022-10-16T11:09:48;1.92;;;0.82;;
22138;SDS011;25815;52.582;13.408;2022-10-16T11:12:25;1.73;;;0.65;;
22138;SDS011;25815;52.582;13.408;2022-10-16T11:14:56;0.60;;;0.60;;
22138;SDS011;25815;52.582;13.408;2022-10-16T11:17:25;2.75;;;0.80;;
22138;SDS011;25815;52.582;13.408;2022-10-16T11:20:00;0.63;;;0.63;;
22138;SDS011;25815;52.582;13.408;2022-10-16T11:22:30;2.40;;;0.70;;
22138;SDS011;25815;52.582;13.408;2022-10-16T11:27:44;1.10;;;0.43;;
22138;SDS011;25815;52.582;13.408;2022-10-16T11:30:15;1.27;;;0.63;;
22138;SDS011;25815;52.582;13.408;2022-10-16T11:35:24;0.95;;;0.60;;
22138;SDS011;25815;52.582;13.408;2022-10-16T11:37:51;2.25;;;0.50;;
22138;SDS011;25815;52.582;13.408;2022-10-16T11:40:25;1.95;;;0.75;;
22138;SDS011;25815;52.582;13.408;2022-10-16T11:42:57;1.30;;;1.17;;
22138;SDS011;25815;52.582;13.408;2022-10-16T11:45:40;0.43;;;0.40;;
22138;SDS011;25815;52.582;13.408;2022-10-16T11:48:24;0.63;;;0.63;;
22138;SDS011;25815;52.582;13.408;2022-10-16T11:51:05;1.33;;;0.50;;
22138;SDS011;25815;52.582;13.408;2022-10-16T11:53:42;1.08;;;0.50;;
22138;SDS011;25815;52.582;13.408;2022-10-16T11:56:15;0.63;;;0.47;;
22138;SDS011;25815;52.582;13.408;2022-10-16T11:58:53;0.50;;;0.40;;
22138;SDS011;25815;52.582;13.408;2022-10-16T12:06:40;0.50;;;0.50;;
22138;SDS011;25815;52.582;13.408;2022-10-16T12:09:11;2.92;;;0.50;;
22138;SDS011;25815;52.582;13.408;2022-10-16T12:11:40;0.68;;;0.52;;
22138;SDS011;25815;52.582;13.408;2022-10-16T12:14:59;1.40;;;0.65;;
22138;SDS011;25815;52.582;13.408;2022-10-16T12:16:56;1.95;;;0.70;;
22138;SDS011;25815;52.582;13.408;2022-10-16T12:19:24;2.15;;;0.60;;
22138;SDS011;25815;52.582;13.408;2022-10-16T12:21:52;1.33;;;0.50;;
22138;SDS011;25815;52.582;13.408;2022-10-16T12:26:47;0.68;;;0.50;;
22138;SDS011;25815;52.582;13.408;2022-10-16T12:31:59;1.55;;;0.45;;
22138;SDS011;25815;52.582;13.408;2022-10-16T12:34:38;1.95;;;0.43;;
22138;SDS011;25815;52.582;13.408;2022-10-16T12:39:37;1.00;;;0.40;;
22138;SDS011;25815;52.582;13.408;2022-10-16T12:42:04;0.57;;;0.40;;
22138;SDS011;25815;52.582;13.408;2022-10-16T12:44:33;1.73;;;0.35;;
22138;SDS011;25815;52.582;13.408;2022-10-16T12:51:54;0.60;;;0.40;;
22138;SDS011;25815;52.582;13.408;2022-10-16T12:54:30;1.58;;;0.28;;
22138;SDS011;25815;52.582;13.408;2022-10-16T12:59:54;2.10;;;0.50;;
22138;SDS011;25815;52.582;13.408;2022-10-16T13:04:58;0.40;;;0.40;;
22138;SDS011;25815;52.582;13.408;2022-10-16T13:07:44;0.60;;;0.40;;
22138;SDS011;25815;52.582;13.408;2022-10-16T13:10:25;0.50;;;0.47;;
22138;SDS011;25815;52.582;13.408;2022-10-16T13:13:09;0.60;;;0.30;;
22138;SDS011;25815;52.582;13.408;2022-10-16T13:18:29;1.17;;;0.50;;
22138;SDS011;25815;52.582;13.408;2022-10-16T13:21:01;1.05;;;0.30;;
22138;SDS011;25815;52.582;13.408;2022-10-16T13:23:33;0.50;;;0.30;;
22138;SDS011;25815;52.582;13.408;2022-10-16T13:28:34;1.60;;;0.40;;
22138;SDS011;25815;52.582;13.408;2022-10-16T13:31:01;1.63;;;0.32;;
22138;SDS011;25815;52.582;13.408;2022-10-16T13:33:37;0.40;;;0.40;;
22138;SDS011;25815;52.582;13.408;2022-10-16T13:36:05;0.43;;;0.32;;
22138;SDS011;25815;52.582;13.408;2022-10-16T13:38:32;0.98;;;0.40;;
22138;SDS011;25815;52.582;13.408;2022-10-16T13:41:00;0.50;;;0.25;;
22138;SDS011;25815;52.582;13.408;2022-10-16T13:43:34;0.30;;;0.30;;
22138;SDS011;25815;52.582;13.408;2022-10-16T13:46:04;0.47;;;0.30;;
22138;SDS011;25815;52.582;13.408;2022-10-16T13:48:31;1.35;;;0.40;;
22138;SDS011;25815;52.582;13.408;2022-10-16T13:51:16;1.75;;;0.30;;
22138;SDS011;25815;52.582;13.408;2022-10-16T13:53:43;0.65;;;0.30;;
22138;SDS011;25815;52.582;13.408;2022-10-16T13:56:19;0.50;;;0.30;;
22138;SDS011;25815;52.582;13.408;2022-10-16T13:58:46;0.57;;;0.40;;
22138;SDS011;25815;52.582;13.408;2022-10-16T14:03:41;1.00;;;0.30;;
22138;SDS011;25815;52.582;13.408;2022-10-16T14:06:11;0.68;;;0.32;;
22138;SDS011;25815;52.582;13.408;2022-10-16T14:08:40;2.35;;;0.30;;
22138;SDS011;25815;52.582;13.408;2022-10-16T14:11:07;0.80;;;0.32;;
22138;SDS011;25815;52.582;13.408;2022-10-16T14:13:34;0.90;;;0.45;;
22138;SDS011;25815;52.582;13.408;2022-10-16T14:16:04;0.50;;;0.30;;
22138;SDS011;25815;52.582;13.408;2022-10-16T14:21:02;1.85;;;0.40;;
22138;SDS011;25815;52.582;13.408;2022-10-16T14:23:29;0.40;;;0.30;;
22138;SDS011;25815;52.582;13.408;2022-10-16T14:28:34;0.70;;;0.40;;
22138;SDS011;25815;52.582;13.408;2022-10-16T14:31:01;0.35;;;0.30;;
22138;SDS011;25815;52.582;13.408;2022-10-16T14:36:05;1.38;;;0.30;;
22138;SDS011;25815;52.582;13.408;2022-10-16T14:38:31;0.95;;;0.50;;
22138;SDS011;25815;52.582;13.408;2022-10-16T14:40:58;0.80;;;0.40;;
22138;SDS011;25815;52.582;13.408;2022-10-16T14:43:32;1.30;;;0.30;;
22138;SDS011;25815;52.582;13.408;2022-10-16T14:45:59;0.43;;;0.30;;
22138;SDS011;25815;52.582;13.408;2022-10-16T14:48:25;0.77;;;0.38;;
22138;SDS011;25815;52.582;13.408;2022-10-16T14:50:51;1.90;;;0.60;;
22138;SDS011;25815;52.582;13.408;2022-10-16T14:53:17;1.10;;;0.40;;
22138;SDS011;25815;52.582;13.408;2022-10-16T14:55:43;0.73;;;0.50;;
22138;SDS011;25815;52.582;13.408;2022-10-16T14:58:22;5.25;;;1.42;;
22138;SDS011;25815;52.582;13.408;2022-10-16T15:00:48;1.13;;;0.40;;
22138;SDS011;25815;52.582;13.408;2022-10-16T15:03:15;1.52;;;0.38;;
22138;SDS011;25815;52.582;13.408;2022-10-16T15:05:40;1.60;;;0.70;;
22138;SDS011;25815;52.582;13.408;2022-10-16T15:08:06;0.85;;;0.50;;
22138;SDS011;25815;52.582;13.408;2022-10-16T15:10:33;0.70;;;0.47;;
22138;SDS011;25815;52.582;13.408;2022-10-16T15:13:01;1.10;;;0.60;;
22138;SDS011;25815;52.582;13.408;2022-10-16T15:15:37;0.50;;;0.50;;
22138;SDS011;25815;52.582;13.408;2022-10-16T15:18:04;2.60;;;0.68;;
22138;SDS011;25815;52.582;13.408;2022-10-16T15:20:31;3.90;;;0.77;;
22138;SDS011;25815;52.582;13.408;2022-10-16T15:22:58;0.80;;;0.50;;
22138;SDS011;25815;52.582;13.408;2022-10-16T15:25:31;1.48;;;0.80;;
22138;SDS011;25815;52.582;13.408;2022-10-16T15:27:57;4.13;;;0.70;;
22138;SDS011;25815;52.582;13.408;2022-10-16T15:30:23;3.15;;;1.38;;
22138;SDS011;25815;52.582;13.408;2022-10-16T15:32:49;1.35;;;0.95;;
22138;SDS011;25815;52.582;13.408;2022-10-16T15:35:15;0.80;;;0.60;;
22138;SDS011;25815;52.582;13.408;2022-10-16T15:37:41;1.08;;;0.70;;
22138;SDS011;25815;52.582;13.408;2022-10-16T15:40:07;1.83;;;1.10;;
22138;SDS011;25815;52.582;13.408;2022-10-16T15:42:33;2.08;;;0.85;;
22138;SDS011;25815;52.582;13.408;2022-10-16T15:44:59;4.97;;;1.10;;
22138;SDS011;25815;52.582;13.408;2022-10-16T15:47:25;1.42;;;0.70;;
22138;SDS011;25815;52.582;13.408;2022-10-16T15:49:51;1.10;;;0.75;;
22138;SDS011;25815;52.582;13.408;2022-10-16T15:52:17;3.38;;;1.00;;
22138;SDS011;25815;52.582;13.408;2022-10-16T15:54:43;1.95;;;0.77;;
22138;SDS011;25815;52.582;13.408;2022-10-16T15:57:09;2.63;;;1.08;;